Lulu Pass Weather Station

This weather station provides temperature, relative humidity (RH), wind speed, gust or max wind speed, and wind direction at 10020ft near Lulu Pass at the head of Fisher Creek. This data can be used with temperature and precipitation data from the Fisher Creek SNOTEL site.

This weather station was purchased by the Friends of the Avalanche Center.

If the data has not been updated recently you can view it directly on datagarrison.com

Elevation
10020ft
Jump to table bottom
Date Time Temperature
deg F
RH, % Wind Speed Wind Gust Wind Direction
05/26/22 03:00 36.7 72 13 19 NW - 302
05/26/22 02:00 37.0 71 13 20 NW - 307
05/26/22 01:00 37.4 70 12 19 NW - 314
05/26/22 00:00 38.2 68 8 14 NW - 302
05/25/22 23:00 39.2 68 11 18 NW - 303
05/25/22 22:00 39.4 65 10 22 W - 274
05/25/22 21:00 39.7 65 9 23 SW - 239
05/25/22 20:00 40.8 58 10 22 SW - 246
05/25/22 19:00 42.2 56 10 23 W - 248
05/25/22 18:00 43.9 55 11 29 SW - 239
05/25/22 17:00 42.2 58 10 25 SW - 232
05/25/22 16:00 41.1 59 12 26 SW - 222
05/25/22 15:00 42.4 56 12 26 W - 250
05/25/22 14:00 41.0 59 13 27 W - 263
05/25/22 13:00 40.2 61 10 21 W - 248
05/25/22 12:00 38.7 64 9 23 W - 263
05/25/22 11:00 36.7 67 9 17 W - 277
05/25/22 10:00 31.8 71 10 22 W - 281
05/25/22 09:00 32.3 72 10 18 W - 282
05/25/22 08:00 31.3 71 10 19 W - 272
05/25/22 07:00 30.1 72 10 24 SW - 233
05/25/22 06:00 29.0 76 7 17 W - 261
05/25/22 05:00 27.7 80 6 16 SW - 233
05/25/22 04:00 27.6 82 6 16 SW - 240
05/25/22 03:00 26.7 84 5 10 SW - 240
05/25/22 02:00 26.9 82 5 11 S - 187
05/25/22 01:00 27.7 78 5 11 S - 171
05/25/22 00:00 28.3 75 5 10 SE - 152
05/24/22 23:00 28.1 75 5 9 SE - 138
05/24/22 22:00 28.8 82 4 7 S - 197
05/24/22 21:00 27.3 86 7 13 NW - 306
05/24/22 20:00 28.3 78 5 9 SW - 220
05/24/22 19:00 30.7 70 5 10 SW - 229
05/24/22 18:00 32.6 60 3 6 NW - 324
05/24/22 17:00 35.6 66 9 17 NW - 314
05/24/22 16:00 31.5 75 16 24 NW - 334
05/24/22 15:00 30.3 64 12 23 NW - 300
05/24/22 14:00 37.0 54 6 14 N - 351
05/24/22 13:00 31.0 68 12 21 N - 352
05/24/22 12:00 36.7 73 4 10 S - 163
05/24/22 11:00 27.7 64 9 18 NW - 310
05/24/22 10:00 31.0 66 9 16 NW - 313
05/24/22 09:00 29.4 70 8 14 NW - 310
05/24/22 08:00 29.1 77 2 7 W - 265
05/24/22 07:00 27.6 81 2 4 SE - 154
05/24/22 06:00 24.9 83 1 4 SW - 206
05/24/22 05:00 24.4 82 3 8 S - 178
05/24/22 04:00 24.1 82 3 8 SE - 118
05/24/22 03:00 24.8 78 6 9 SE - 132
05/24/22 02:00 24.9 76 6 9 SE - 131